Date,TemperatureHighF,TemperatureAvgF,TemperatureLowF,DewpointHighF,DewpointAvgF,DewpointLowF,HumidityHigh,HumidityAvg,HumidityLow,PressureMaxIn,PressureMinIn,WindSpeedMaxMPH,WindSpeedAvgMPH,GustSpeedMaxMPH,PrecipitationSumIn
2013-2-1,73.6,61.9,52.5,48.7,42.6,36.9,51,39,31,30.34,30.21,14,-6,16,0.00
2013-2-2,79.0,65.4,55.6,58.8,51.3,43.3,72,55,41,30.23,30.13,13,-7,13,0.00
2013-2-3,75.6,63.6,54.9,59.5,47.0,41.2,74,47,37,30.30,30.04,10,-2,12,0.00
2013-2-4,72.3,65.7,58.8,61.0,53.6,42.6,78,60,40,30.04,29.80,12,-7,13,0.18
2013-2-5,82.8,70.5,63.1,61.2,57.2,49.8,78,67,53,29.96,29.84,10,-3,12,0.01
2013-2-6,66.2,64.2,61.7,61.3,57.7,49.8,78,68,53,30.00,29.83,14,-2,21,0.63
2013-2-7,71.6,66.0,59.4,61.2,57.7,49.5,77,68,52,29.96,29.86,10,-11,12,0.00
2013-2-8,73.2,63.6,56.3,61.0,54.8,46.4,78,62,46,30.14,29.96,15,-5,17,0.00
2013-2-9,70.3,63.3,54.0,61.3,55.6,46.6,77,64,45,30.10,29.83,12,-1,17,0.00
2013-2-10,75.4,66.0,59.9,61.5,57.6,49.5,78,68,52,29.94,29.79,20,0,23,0.12
2013-2-11,63.9,57.2,54.5,60.4,54.3,46.9,75,61,47,30.02,29.92,17,-4,19,0.01
2013-2-12,64.8,60.2,54.9,60.8,56.6,47.5,76,66,48,29.94,29.77,11,-7,14,0.00
2013-2-13,64.4,55.7,48.0,59.5,47.2,41.4,74,47,38,30.09,29.93,13,-10,18,0.00
2013-2-14,69.3,56.6,44.1,47.7,43.4,39.7,49,41,35,30.14,30.01,8,-7,10,0.00
2013-2-15,71.4,58.1,46.8,49.8,44.7,40.5,53,43,37,30.29,30.06,19,-6,24,0.00
2013-2-16,64.8,54.1,42.6,43.3,35.8,32.5,41,30,26,30.41,30.22,10,-2,16,0.00
2013-2-17,70.7,60.7,46.9,49.6,41.3,34.2,52,38,28,30.23,30.02,21,2,23,0.00
2013-2-18,73.8,67.2,55.9,61.5,54.5,43.3,79,62,41,30.05,29.81,25,-1,33,0.36
2013-2-19,70.7,60.7,52.0,61.0,50.5,43.3,77,53,41,30.22,30.05,12,-1,15,0.19
2013-2-20,62.1,58.2,54.1,59.5,50.2,42.8,75,53,40,30.10,29.76,18,1,20,0.10
2013-2-21,76.8,70.2,62.1,61.3,57.2,47.8,78,68,49,29.82,29.64,23,0,24,0.12
2013-2-22,70.9,62.9,55.8,59.2,51.1,44.4,74,54,43,29.96,29.80,14,0,18,0.00
2013-2-23,72.1,61.2,50.0,54.5,48.8,43.3,63,49,41,29.96,29.85,15,-10,18,0.00
2013-2-24,69.4,62.3,52.9,59.5,50.6,43.3,74,53,41,29.91,29.64,14,-6,16,0.00
2013-2-25,75.7,64.3,49.6,61.0,51.2,39.9,78,55,35,29.74,29.48,31,4,41,0.00
2013-2-26,66.4,56.3,46.0,41.0,39.8,38.1,37,35,33,29.90,29.74,19,-4,24,0.00
2013-2-27,71.4,60.6,49.6,50.0,42.0,36.1,54,38,30,30.12,29.87,19,-10,25,0.00
2013-2-28,59.7,52.4,44.8,37.6,34.5,32.5,32,28,26,30.25,30.12,14,-6,18,0.00